createdAt,value
2019-03-18T00:01:24.924Z,98375.00
2019-03-18T00:03:52.084Z,98371.00
2019-03-18T00:06:19.207Z,98378.00
2019-03-18T00:08:46.385Z,98371.00
2019-03-18T00:11:13.544Z,98367.00
2019-03-18T00:13:41.343Z,98370.00
2019-03-18T00:16:08.844Z,98378.00
2019-03-18T00:18:35.984Z,98382.00
2019-03-18T00:21:03.264Z,98373.00
2019-03-18T00:23:31.151Z,98380.00
2019-03-18T00:25:58.324Z,98382.00
2019-03-18T00:28:25.585Z,98385.00
2019-03-18T00:30:52.765Z,98390.00
2019-03-18T00:33:19.926Z,98375.00
2019-03-18T00:35:47.033Z,98382.00
2019-03-18T00:38:14.265Z,98378.00
2019-03-18T00:40:41.447Z,98389.00
2019-03-18T00:43:08.628Z,98387.00
2019-03-18T00:45:36.064Z,98383.00
2019-03-18T00:48:03.385Z,98389.00
2019-03-18T00:50:30.540Z,98387.00
2019-03-18T00:52:57.725Z,98389.00
2019-03-18T00:55:24.928Z,98385.00
2019-03-18T00:57:52.124Z,98380.00
2019-03-18T01:00:19.557Z,98381.00
2019-03-18T01:02:49.426Z,98381.00
2019-03-18T01:05:16.512Z,98375.00
2019-03-18T01:07:43.807Z,98369.00
2019-03-18T01:10:12.949Z,98372.00
2019-03-18T01:12:40.063Z,98363.00
2019-03-18T01:15:10.184Z,98354.00
2019-03-18T01:17:37.345Z,98354.00
2019-03-18T01:20:07.331Z,98356.00
2019-03-18T01:22:34.544Z,98366.00
2019-03-18T01:25:02.064Z,98371.00
2019-03-18T01:27:48.971Z,98367.00
2019-03-18T01:30:16.190Z,98370.00
2019-03-18T01:32:43.364Z,98371.00
2019-03-18T01:35:10.932Z,98380.00
2019-03-18T01:37:38.069Z,98377.00
2019-03-18T01:40:11.426Z,98380.00
2019-03-18T01:42:39.225Z,98376.00
2019-03-18T01:45:07.964Z,98381.00
2019-03-18T01:47:35.144Z,98377.00
2019-03-18T01:50:03.185Z,98378.00
2019-03-18T01:52:30.324Z,98377.00
2019-03-18T01:54:57.445Z,98389.00
2019-03-18T01:57:24.604Z,98392.00
2019-03-18T01:59:51.805Z,98397.00
2019-03-18T02:02:18.907Z,98400.00
2019-03-18T02:04:46.107Z,98402.00
2019-03-18T02:07:13.765Z,98407.00
2019-03-18T02:09:41.344Z,98404.00
2019-03-18T02:12:08.544Z,98410.00
2019-03-18T02:14:35.704Z,98401.00
2019-03-18T02:17:09.067Z,98400.00
2019-03-18T02:19:36.225Z,98396.00
2019-03-18T02:22:03.424Z,98405.00
2019-03-18T02:24:30.531Z,98405.00
2019-03-18T02:26:57.765Z,98400.00
2019-03-18T02:29:24.867Z,98387.00
2019-03-18T02:31:52.033Z,98394.00
2019-03-18T02:34:19.273Z,98406.00
2019-03-18T02:36:46.368Z,98398.00
2019-03-18T02:39:13.624Z,98398.00
2019-03-18T02:41:41.045Z,98400.00
2019-03-18T02:44:08.206Z,98408.00
2019-03-18T02:46:35.405Z,98406.00
2019-03-18T02:49:02.584Z,98417.00
2019-03-18T02:51:29.765Z,98423.00
2019-03-18T02:53:56.907Z,98442.00
2019-03-18T02:56:24.126Z,98440.00
2019-03-18T02:58:51.233Z,98445.00
2019-03-18T03:01:18.367Z,98439.00
2019-03-18T03:03:45.645Z,98432.00
2019-03-18T03:06:12.763Z,98422.00
2019-03-18T03:08:40.023Z,98406.00
2019-03-18T03:11:07.252Z,98409.00
2019-03-18T03:13:34.364Z,98419.00
2019-03-18T03:16:01.490Z,98431.00
2019-03-18T03:18:28.714Z,98438.00
2019-03-18T03:20:55.816Z,98429.00
2019-03-18T03:23:22.988Z,98436.00
2019-03-18T03:25:50.144Z,98430.00
2019-03-18T03:28:17.314Z,98429.00
2019-03-18T03:30:44.486Z,98434.00
2019-03-18T03:33:11.686Z,98446.00
2019-03-18T03:35:38.786Z,98448.00
2019-03-18T03:38:05.946Z,98445.00
2019-03-18T03:40:33.106Z,98441.00
2019-03-18T03:43:00.288Z,98438.00
2019-03-18T03:45:27.490Z,98436.00
2019-03-18T03:47:54.665Z,98434.00
2019-03-18T03:50:21.825Z,98435.00
2019-03-18T03:52:49.012Z,98438.00
2019-03-18T03:55:16.246Z,98458.00
2019-03-18T03:57:43.907Z,98448.00
2019-03-18T04:00:14.666Z,98461.00
2019-03-18T04:02:41.950Z,98469.00
2019-03-18T04:05:09.204Z,98459.00
2019-03-18T04:07:36.733Z,98464.00
2019-03-18T04:10:14.770Z,98462.00
2019-03-18T04:12:41.978Z,98462.00
2019-03-18T04:15:14.833Z,98449.00
2019-03-18T04:17:42.101Z,98453.00
2019-03-18T04:20:15.170Z,98458.00
2019-03-18T04:22:42.324Z,98473.00
2019-03-18T04:25:10.046Z,98482.00
2019-03-18T04:27:37.127Z,98479.00
2019-03-18T04:30:14.894Z,98482.00
2019-03-18T04:32:42.130Z,98488.00
2019-03-18T04:35:09.876Z,98489.00
2019-03-18T04:37:37.448Z,98494.00
2019-03-18T04:40:07.605Z,98494.00
2019-03-18T04:42:34.786Z,98480.00
2019-03-18T04:45:02.825Z,98480.00
2019-03-18T04:47:29.985Z,98475.00
2019-03-18T04:49:57.126Z,98477.00
2019-03-18T04:52:24.345Z,98487.00
2019-03-18T04:54:51.505Z,98488.00
2019-03-18T04:57:18.625Z,98482.00
2019-03-18T04:59:45.784Z,98481.00
2019-03-18T05:02:12.925Z,98494.00
2019-03-18T05:04:40.066Z,98490.00
2019-03-18T05:07:07.245Z,98508.00
2019-03-18T05:09:34.425Z,98511.00
2019-03-18T05:12:01.585Z,98505.00
2019-03-18T05:14:28.788Z,98505.00
2019-03-18T05:16:55.886Z,98506.00
2019-03-18T05:19:23.069Z,98501.00
2019-03-18T05:21:50.266Z,98498.00
2019-03-18T05:24:17.425Z,98500.00
2019-03-18T05:26:44.604Z,98503.00
2019-03-18T05:29:11.824Z,98507.00
2019-03-18T05:31:39.004Z,98510.00
2019-03-18T05:34:06.169Z,98515.00
2019-03-18T05:36:33.606Z,98531.00
2019-03-18T05:39:00.745Z,98550.00
2019-03-18T05:41:27.891Z,98547.00
2019-03-18T05:43:55.100Z,98543.00
2019-03-18T05:46:41.965Z,98544.00
2019-03-18T05:49:09.172Z,98541.00
2019-03-18T05:51:36.288Z,98537.00
2019-03-18T05:54:03.493Z,98544.00
2019-03-18T05:56:34.885Z,98529.00
2019-03-18T05:59:02.004Z,98534.00
2019-03-18T06:01:29.205Z,98541.00
2019-03-18T06:03:56.425Z,98541.00
2019-03-18T06:06:23.564Z,98544.00
2019-03-18T06:08:50.706Z,98529.00
2019-03-18T06:11:17.927Z,98544.00
2019-03-18T06:13:45.064Z,98551.00
2019-03-18T06:16:12.225Z,98559.00
2019-03-18T06:18:39.405Z,98578.00
2019-03-18T06:21:06.525Z,98578.00
2019-03-18T06:23:33.724Z,98570.00
2019-03-18T06:26:00.945Z,98574.00
2019-03-18T06:28:28.204Z,98563.00
2019-03-18T06:30:55.306Z,98562.00
2019-03-18T06:33:22.569Z,98569.00
2019-03-18T06:35:49.724Z,98574.00
2019-03-18T06:38:17.105Z,98568.00
2019-03-18T06:40:44.685Z,98567.00
2019-03-18T06:43:12.125Z,98557.00
2019-03-18T06:45:39.304Z,98565.00
2019-03-18T06:48:09.081Z,98563.00
2019-03-18T06:50:35.534Z,98563.00
2019-03-18T06:53:02.864Z,98576.00
2019-03-18T06:55:30.065Z,98585.00
2019-03-18T06:57:57.265Z,98589.00
2019-03-18T07:00:24.471Z,98587.00
2019-03-18T07:02:51.685Z,98598.00
2019-03-18T07:05:18.845Z,98616.00
2019-03-18T07:07:46.026Z,98603.00
2019-03-18T07:10:13.585Z,98596.00
2019-03-18T07:12:40.665Z,98597.00
2019-03-18T07:15:09.225Z,98600.00
2019-03-18T07:17:36.406Z,98617.00
2019-03-18T07:20:08.984Z,98611.00
2019-03-18T07:22:36.185Z,98614.00
2019-03-18T07:25:04.267Z,98621.00
2019-03-18T07:27:31.466Z,98625.00
2019-03-18T07:29:58.587Z,98632.00
2019-03-18T07:32:25.974Z,98634.00
2019-03-18T07:34:53.226Z,98622.00
2019-03-18T07:37:20.406Z,98616.00
2019-03-18T07:39:47.625Z,98624.00
2019-03-18T07:42:14.764Z,98627.00
2019-03-18T07:44:42.127Z,98625.00
2019-03-18T07:47:09.285Z,98627.00
2019-03-18T07:49:36.444Z,98628.00
2019-03-18T07:52:03.728Z,98637.00
2019-03-18T07:54:32.990Z,98652.00
2019-03-18T07:57:00.469Z,98645.00
2019-03-18T07:59:27.585Z,98645.00
2019-03-18T08:01:55.305Z,98649.00
2019-03-18T08:04:22.505Z,98657.00
2019-03-18T08:06:50.144Z,98649.00
2019-03-18T08:09:17.346Z,98653.00
2019-03-18T08:11:44.506Z,98661.00
2019-03-18T08:14:11.688Z,98656.00
2019-03-18T08:16:38.865Z,98654.00
2019-03-18T08:19:05.986Z,98642.00
2019-03-18T08:21:33.165Z,98658.00
2019-03-18T08:24:00.285Z,98660.00
2019-03-18T08:26:27.476Z,98664.00
2019-03-18T08:28:54.676Z,98659.00
2019-03-18T08:31:21.861Z,98644.00
2019-03-18T08:33:48.997Z,98646.00
2019-03-18T08:36:16.172Z,98645.00
2019-03-18T08:38:43.412Z,98628.00
2019-03-18T08:41:10.592Z,98636.00
2019-03-18T08:43:38.151Z,98640.00
2019-03-18T08:46:05.310Z,98648.00
2019-03-18T08:48:32.572Z,98654.00
2019-03-18T08:50:59.713Z,98656.00
2019-03-18T08:53:27.276Z,98656.00
2019-03-18T08:55:54.719Z,98655.00
2019-03-18T08:58:21.933Z,98647.00
2019-03-18T09:00:49.152Z,98641.00
2019-03-18T09:03:16.272Z,98652.00
2019-03-18T09:05:43.454Z,98656.00
2019-03-18T09:08:10.692Z,98648.00
2019-03-18T09:10:37.839Z,98644.00
2019-03-18T09:13:05.111Z,98639.00
2019-03-18T09:15:32.312Z,98642.00
2019-03-18T09:17:59.552Z,98642.00
2019-03-18T09:20:26.774Z,98641.00
2019-03-18T09:22:53.975Z,98635.00
2019-03-18T09:25:21.154Z,98642.00
2019-03-18T09:27:48.312Z,98640.00
2019-03-18T09:30:20.704Z,98648.00
2019-03-18T09:32:48.311Z,98656.00
2019-03-18T09:35:15.830Z,98661.00
2019-03-18T09:37:43.125Z,98661.00
2019-03-18T09:40:12.492Z,98667.00
2019-03-18T09:42:39.612Z,98666.00
2019-03-18T09:45:10.793Z,98670.00
2019-03-18T09:47:37.991Z,98667.00
2019-03-18T09:50:08.132Z,98667.00
2019-03-18T09:52:35.351Z,98672.00
2019-03-18T09:55:04.533Z,98685.00
2019-03-18T09:57:31.715Z,98685.00
2019-03-18T09:59:59.011Z,98685.00
2019-03-18T10:02:26.132Z,98676.00
2019-03-18T10:04:53.331Z,98689.00
2019-03-18T10:07:20.538Z,98690.00
2019-03-18T10:09:47.712Z,98693.00
2019-03-18T10:12:14.855Z,98698.00
2019-03-18T10:14:42.032Z,98699.00
2019-03-18T10:17:10.196Z,98695.00
2019-03-18T10:19:37.535Z,98697.00
2019-03-18T10:22:04.752Z,98698.00
2019-03-18T10:24:31.933Z,98699.00
2019-03-18T10:26:59.072Z,98701.00
2019-03-18T10:29:26.291Z,98705.00
2019-03-18T10:31:53.443Z,98712.00
2019-03-18T10:34:20.632Z,98709.00
2019-03-18T10:36:47.851Z,98714.00
2019-03-18T10:39:14.951Z,98726.00
2019-03-18T10:41:42.131Z,98722.00
2019-03-18T10:44:09.431Z,98719.00
2019-03-18T10:46:36.572Z,98717.00
2019-03-18T10:49:03.751Z,98714.00
2019-03-18T10:51:31.992Z,98716.00
2019-03-18T10:53:59.765Z,98713.00
2019-03-18T10:56:26.995Z,98710.00
2019-03-18T10:58:54.252Z,98712.00
2019-03-18T11:01:21.454Z,98710.00
2019-03-18T11:03:48.932Z,98715.00
2019-03-18T11:06:16.071Z,98710.00
2019-03-18T11:08:43.571Z,98720.00
2019-03-18T11:11:10.752Z,98723.00
2019-03-18T11:13:37.949Z,98719.00
2019-03-18T11:16:05.473Z,98727.00
2019-03-18T11:18:32.651Z,98750.00
2019-03-18T11:20:59.851Z,98768.00
2019-03-18T11:23:26.991Z,98770.00
2019-03-18T11:25:54.151Z,98756.00
2019-03-18T11:28:21.353Z,98755.00
2019-03-18T11:30:48.509Z,98758.00
2019-03-18T11:33:15.691Z,98770.00
2019-03-18T11:35:43.411Z,98760.00
2019-03-18T11:38:10.612Z,98764.00
2019-03-18T11:40:37.712Z,98761.00
2019-03-18T11:43:04.919Z,98756.00
2019-03-18T11:45:32.031Z,98753.00
2019-03-18T11:47:59.140Z,98740.00
2019-03-18T11:50:26.292Z,98737.00
2019-03-18T11:53:14.511Z,98734.00
2019-03-18T11:55:42.076Z,98723.00
2019-03-18T11:58:09.191Z,98728.00
2019-03-18T12:00:36.271Z,98730.00
2019-03-18T12:03:03.680Z,98735.00
2019-03-18T12:05:33.111Z,98729.00
2019-03-18T12:08:00.251Z,98716.00
2019-03-18T12:10:27.411Z,98715.00
2019-03-18T12:12:54.660Z,98707.00
2019-03-18T12:15:28.160Z,98714.00
2019-03-18T12:17:55.852Z,98711.00
2019-03-18T12:20:25.470Z,98715.00
2019-03-18T12:22:52.063Z,98716.00
2019-03-18T12:25:19.260Z,98717.00
2019-03-18T12:27:46.401Z,98706.00
2019-03-18T12:30:25.901Z,98704.00
2019-03-18T12:32:53.035Z,98709.00
2019-03-18T12:35:20.366Z,98712.00
2019-03-18T12:37:47.762Z,98710.00
2019-03-18T12:40:16.078Z,98698.00
2019-03-18T12:42:43.688Z,98704.00
2019-03-18T12:45:14.663Z,98706.00
2019-03-18T12:47:41.921Z,98705.00
2019-03-18T12:50:18.200Z,98702.00
2019-03-18T12:52:45.383Z,98709.00
2019-03-18T12:55:13.000Z,98698.00
2019-03-18T12:57:40.720Z,98717.00
2019-03-18T13:00:18.900Z,98711.00
2019-03-18T13:02:46.121Z,98718.00
2019-03-18T13:05:13.267Z,98707.00
2019-03-18T13:07:40.545Z,98708.00
2019-03-18T13:10:12.784Z,98710.00
2019-03-18T13:12:39.981Z,98725.00
2019-03-18T13:15:14.061Z,98732.00
2019-03-18T13:17:43.728Z,98730.00
2019-03-18T13:20:14.667Z,98737.00
2019-03-18T13:22:41.841Z,98738.00
2019-03-18T13:25:12.241Z,98733.00
2019-03-18T13:27:39.940Z,98729.00
2019-03-18T13:30:15.628Z,98724.00
2019-03-18T13:32:43.379Z,98726.00
2019-03-18T13:35:10.559Z,98740.00
2019-03-18T13:37:37.790Z,98743.00
2019-03-18T13:40:14.819Z,98741.00
2019-03-18T13:42:42.480Z,98745.00
2019-03-18T13:45:21.961Z,98745.00
2019-03-18T13:47:49.199Z,98742.00
2019-03-18T13:50:18.518Z,98757.00
2019-03-18T13:52:45.918Z,98743.00
2019-03-18T13:55:13.078Z,98749.00
2019-03-18T13:57:40.292Z,98744.00
2019-03-18T14:00:12.678Z,98756.00
2019-03-18T14:02:40.190Z,98764.00
2019-03-18T14:05:08.339Z,98763.00
2019-03-18T14:07:35.472Z,98771.00
2019-03-18T14:10:05.978Z,98772.00
2019-03-18T14:12:33.638Z,98775.00
2019-03-18T14:15:00.859Z,98776.00
2019-03-18T14:17:28.059Z,98783.00
2019-03-18T14:19:55.199Z,98773.00
2019-03-18T14:22:22.339Z,98771.00
2019-03-18T14:24:49.559Z,98761.00
2019-03-18T14:27:16.779Z,98771.00
2019-03-18T14:29:43.862Z,98770.00
2019-03-18T14:32:11.059Z,98771.00
2019-03-18T14:34:38.219Z,98764.00
2019-03-18T14:37:05.358Z,98762.00
2019-03-18T14:39:32.561Z,98765.00
2019-03-18T14:41:59.718Z,98764.00
2019-03-18T14:44:26.881Z,98770.00
2019-03-18T14:46:54.092Z,98780.00
2019-03-18T14:49:21.220Z,98775.00
2019-03-18T14:51:48.310Z,98772.00
2019-03-18T14:54:15.763Z,98780.00
2019-03-18T14:56:42.927Z,98782.00
2019-03-18T14:59:10.063Z,98776.00
2019-03-18T15:01:37.359Z,98782.00
2019-03-18T15:04:04.494Z,98781.00
2019-03-18T15:06:31.639Z,98779.00
2019-03-18T15:08:58.820Z,98772.00
2019-03-18T15:11:26.139Z,98767.00
2019-03-18T15:13:53.321Z,98780.00
2019-03-18T15:16:20.543Z,98788.00
2019-03-18T15:18:47.781Z,98780.00
2019-03-18T15:21:14.922Z,98774.00
2019-03-18T15:23:43.131Z,98774.00
2019-03-18T15:26:10.195Z,98783.00
2019-03-18T15:28:37.384Z,98785.00
2019-03-18T15:31:04.488Z,98793.00
2019-03-18T15:33:31.621Z,98794.00
2019-03-18T15:35:58.770Z,98811.00
2019-03-18T15:38:25.951Z,98813.00
2019-03-18T15:40:53.198Z,98809.00
2019-03-18T15:43:20.304Z,98812.00
2019-03-18T15:45:47.426Z,98810.00
2019-03-18T15:48:14.608Z,98817.00
2019-03-18T15:50:41.769Z,98815.00
2019-03-18T15:53:08.961Z,98812.00
2019-03-18T15:55:36.164Z,98809.00
2019-03-18T15:58:03.451Z,98820.00
2019-03-18T16:00:32.117Z,98819.00
2019-03-18T16:02:59.938Z,98822.00
2019-03-18T16:05:27.035Z,98818.00
2019-03-18T16:07:54.301Z,98824.00
2019-03-18T16:10:21.411Z,98821.00
2019-03-18T16:12:48.702Z,98826.00
2019-03-18T16:15:17.563Z,98826.00
2019-03-18T16:17:44.659Z,98832.00
2019-03-18T16:20:21.542Z,98825.00
2019-03-18T16:22:48.729Z,98837.00
2019-03-18T16:25:15.757Z,98830.00
2019-03-18T16:27:43.169Z,98837.00
2019-03-18T16:30:16.702Z,98844.00
2019-03-18T16:32:43.865Z,98851.00
2019-03-18T16:35:16.240Z,98849.00
2019-03-18T16:37:44.040Z,98852.00
2019-03-18T16:40:20.755Z,98852.00
2019-03-18T16:42:47.957Z,98866.00
2019-03-18T16:45:16.416Z,98860.00
2019-03-18T16:47:43.534Z,98855.00
2019-03-18T16:50:17.521Z,98860.00
2019-03-18T16:52:44.601Z,98863.00
2019-03-18T16:55:12.200Z,98861.00
2019-03-18T16:57:39.523Z,98872.00
2019-03-18T17:00:11.481Z,98864.00
2019-03-18T17:02:38.685Z,98876.00
2019-03-18T17:05:07.226Z,98873.00
2019-03-18T17:07:34.345Z,98877.00
2019-03-18T17:10:01.549Z,98875.00
2019-03-18T17:12:28.706Z,98886.00
2019-03-18T17:14:55.887Z,98894.00
2019-03-18T17:17:23.205Z,98895.00
2019-03-18T17:19:50.345Z,98889.00
2019-03-18T17:22:17.505Z,98888.00
2019-03-18T17:24:44.808Z,98892.00
2019-03-18T17:27:11.934Z,98901.00
2019-03-18T17:29:39.106Z,98895.00
2019-03-18T17:32:06.289Z,98911.00
2019-03-18T17:34:33.386Z,98910.00
2019-03-18T17:37:00.905Z,98909.00
2019-03-18T17:39:28.086Z,98917.00
2019-03-18T17:41:55.246Z,98918.00
2019-03-18T17:44:22.491Z,98923.00
2019-03-18T17:46:49.729Z,98932.00
2019-03-18T17:49:16.891Z,98932.00
2019-03-18T17:51:44.045Z,98944.00
2019-03-18T17:54:11.228Z,98941.00
2019-03-18T17:56:38.447Z,98953.00
2019-03-18T17:59:05.586Z,98955.00
2019-03-18T18:01:38.486Z,98956.00
2019-03-18T18:04:05.646Z,98964.00
2019-03-18T18:06:32.769Z,98965.00
2019-03-18T18:09:00.006Z,98966.00
2019-03-18T18:11:27.147Z,98968.00
2019-03-18T18:13:54.225Z,98974.00
2019-03-18T18:16:21.451Z,98990.00
2019-03-18T18:18:48.708Z,98994.00
2019-03-18T18:21:15.846Z,98991.00
2019-03-18T18:23:43.026Z,98992.00
2019-03-18T18:26:10.186Z,98984.00
2019-03-18T18:28:37.445Z,98996.00
2019-03-18T18:31:04.626Z,99004.00
2019-03-18T18:33:32.046Z,98995.00
2019-03-18T18:35:59.228Z,99002.00
2019-03-18T18:38:26.406Z,99000.00
2019-03-18T18:40:53.927Z,99000.00
2019-03-18T18:43:21.107Z,99004.00
2019-03-18T18:45:48.434Z,99007.00
2019-03-18T18:48:15.586Z,99010.00
2019-03-18T18:50:42.927Z,99015.00
2019-03-18T18:53:10.107Z,99015.00
2019-03-18T18:55:37.298Z,99014.00
2019-03-18T18:58:04.517Z,99013.00
2019-03-18T19:00:31.697Z,99009.00
2019-03-18T19:02:58.763Z,99018.00
2019-03-18T19:05:25.891Z,99015.00
2019-03-18T19:07:53.064Z,99021.00
2019-03-18T19:10:20.646Z,99021.00
2019-03-18T19:12:48.205Z,99026.00
2019-03-18T19:15:26.013Z,99028.00
2019-03-18T19:17:53.185Z,99040.00
2019-03-18T19:20:20.325Z,99037.00
2019-03-18T19:22:47.585Z,99050.00
2019-03-18T19:25:16.965Z,99054.00
2019-03-18T19:27:44.151Z,99042.00
2019-03-18T19:30:22.749Z,99048.00
2019-03-18T19:32:50.125Z,99053.00
2019-03-18T19:35:17.506Z,99052.00
2019-03-18T19:37:44.719Z,99042.00
2019-03-18T19:40:19.568Z,99047.00
2019-03-18T19:42:46.885Z,99053.00
2019-03-18T19:45:14.145Z,99057.00
2019-03-18T19:47:41.471Z,99057.00
2019-03-18T19:50:24.749Z,99055.00
2019-03-18T19:52:52.329Z,99056.00
2019-03-18T19:55:19.426Z,99063.00
2019-03-18T19:57:46.568Z,99059.00
2019-03-18T20:00:25.586Z,99065.00
2019-03-18T20:02:52.788Z,99060.00
2019-03-18T20:05:20.028Z,99069.00
2019-03-18T20:07:47.208Z,99064.00
2019-03-18T20:10:17.225Z,99063.00
2019-03-18T20:12:44.327Z,99059.00
2019-03-18T20:15:14.656Z,99061.00
2019-03-18T20:17:41.885Z,99072.00
2019-03-18T20:20:21.626Z,99079.00
2019-03-18T20:22:48.846Z,99083.00
2019-03-18T20:25:16.004Z,99073.00
2019-03-18T20:27:43.139Z,99093.00
2019-03-18T20:30:18.652Z,99092.00
2019-03-18T20:32:45.878Z,99093.00
2019-03-18T20:35:18.060Z,99094.00
2019-03-18T20:37:45.322Z,99097.00
2019-03-18T20:40:14.300Z,99098.00
2019-03-18T20:42:41.943Z,99094.00
2019-03-18T20:45:21.181Z,99100.00
2019-03-18T20:47:48.542Z,99103.00
2019-03-18T20:50:20.051Z,99113.00
2019-03-18T20:52:47.220Z,99116.00
2019-03-18T20:55:15.360Z,99122.00
2019-03-18T20:57:42.621Z,99123.00
2019-03-18T21:00:21.128Z,99126.00
2019-03-18T21:02:48.441Z,99126.00
2019-03-18T21:05:15.764Z,99129.00
2019-03-18T21:07:42.941Z,99130.00
2019-03-18T21:10:15.535Z,99135.00
2019-03-18T21:12:42.701Z,99137.00
2019-03-18T21:15:12.361Z,99145.00
2019-03-18T21:17:39.840Z,99145.00
2019-03-18T21:20:17.819Z,99149.00
2019-03-18T21:22:45.321Z,99157.00
2019-03-18T21:25:12.583Z,99156.00
2019-03-18T21:27:39.822Z,99160.00
2019-03-18T21:30:21.702Z,99153.00
2019-03-18T21:32:49.119Z,99160.00
2019-03-18T21:35:16.763Z,99165.00
2019-03-18T21:37:43.941Z,99162.00
2019-03-18T21:40:19.082Z,99166.00
2019-03-18T21:42:46.285Z,99170.00
2019-03-18T21:45:18.321Z,99175.00
2019-03-18T21:47:45.668Z,99176.00
2019-03-18T21:50:16.261Z,99177.00
2019-03-18T21:52:43.642Z,99177.00
2019-03-18T21:55:11.682Z,99174.00
2019-03-18T21:57:38.860Z,99180.00
2019-03-18T22:00:20.011Z,99190.00
2019-03-18T22:02:47.294Z,99185.00
2019-03-18T22:05:15.032Z,99186.00
2019-03-18T22:07:42.273Z,99188.00
2019-03-18T22:10:13.101Z,99192.00
2019-03-18T22:12:40.239Z,99191.00
2019-03-18T22:15:10.773Z,99199.00
2019-03-18T22:17:37.933Z,99195.00
2019-03-18T22:20:14.674Z,99204.00
2019-03-18T22:22:41.777Z,99201.00
2019-03-18T22:25:11.757Z,99204.00
2019-03-18T22:27:38.932Z,99206.00
2019-03-18T22:30:13.053Z,99203.00
2019-03-18T22:32:40.772Z,99204.00
2019-03-18T22:35:09.332Z,99207.00
2019-03-18T22:37:36.514Z,99206.00
2019-03-18T22:40:08.092Z,99214.00
2019-03-18T22:42:35.232Z,99215.00
2019-03-18T22:45:05.572Z,99214.00
2019-03-18T22:47:32.855Z,99209.00
2019-03-18T22:50:00.431Z,99228.00
2019-03-18T22:52:27.612Z,99226.00
2019-03-18T22:54:56.116Z,99222.00
2019-03-18T22:57:23.840Z,99222.00
2019-03-18T22:59:50.993Z,99219.00
2019-03-18T23:02:18.493Z,99216.00
2019-03-18T23:04:45.653Z,99216.00
2019-03-18T23:07:13.073Z,99219.00
2019-03-18T23:09:40.292Z,99220.00
2019-03-18T23:12:07.412Z,99222.00
2019-03-18T23:14:34.593Z,99217.00
2019-03-18T23:17:01.793Z,99221.00
2019-03-18T23:19:29.175Z,99225.00
2019-03-18T23:21:56.393Z,99212.00
2019-03-18T23:24:23.912Z,99222.00
2019-03-18T23:26:51.301Z,99222.00
2019-03-18T23:29:19.114Z,99223.00
2019-03-18T23:31:46.372Z,99224.00
2019-03-18T23:34:13.733Z,99232.00
2019-03-18T23:36:40.872Z,99234.00
2019-03-18T23:39:08.475Z,99234.00
2019-03-18T23:41:35.793Z,99232.00
2019-03-18T23:44:03.014Z,99235.00
2019-03-18T23:46:30.213Z,99237.00
2019-03-18T23:48:59.653Z,99235.00
2019-03-18T23:51:26.772Z,99239.00
2019-03-18T23:53:53.973Z,99240.00
2019-03-18T23:56:21.512Z,99238.00
2019-03-18T23:58:48.673Z,99238.00
